createdAt,value
2019-05-11T00:00:55.579Z,998.77
2019-05-11T00:01:55.568Z,998.78
2019-05-11T00:02:55.585Z,998.74
2019-05-11T00:03:55.548Z,998.69
2019-05-11T00:04:55.532Z,998.63
2019-05-11T00:05:55.520Z,998.60
2019-05-11T00:06:55.511Z,998.61
2019-05-11T00:07:55.505Z,998.56
2019-05-11T00:08:55.520Z,998.62
2019-05-11T00:09:58.170Z,998.62
2019-05-11T00:10:55.464Z,998.60
2019-05-11T00:11:55.461Z,998.60
2019-05-11T00:12:55.462Z,998.52
2019-05-11T00:13:55.430Z,998.52
2019-05-11T00:14:55.448Z,998.53
2019-05-11T00:15:55.408Z,998.46
2019-05-11T00:16:55.397Z,998.42
2019-05-11T00:17:55.386Z,998.44
2019-05-11T00:18:55.374Z,998.42
2019-05-11T00:19:55.363Z,998.35
2019-05-11T00:20:55.367Z,998.36
2019-05-11T00:21:55.340Z,998.36
2019-05-11T00:22:55.334Z,998.39
2019-05-11T00:23:55.317Z,998.37
2019-05-11T00:24:55.312Z,998.40
2019-05-11T00:25:55.324Z,998.38
2019-05-11T00:26:55.282Z,998.42
2019-05-11T00:27:55.279Z,998.45
2019-05-11T00:28:55.260Z,998.39
2019-05-11T00:29:55.251Z,998.37
2019-05-11T00:30:55.239Z,998.38
2019-05-11T00:31:55.253Z,998.32
2019-05-11T00:32:55.216Z,998.33
2019-05-11T00:33:55.212Z,998.36
2019-05-11T00:34:55.194Z,998.36
2019-05-11T00:35:55.187Z,998.34
2019-05-11T00:36:55.173Z,998.34
2019-05-11T00:37:55.175Z,998.32
2019-05-11T00:38:55.154Z,998.28
2019-05-11T00:39:55.135Z,998.30
2019-05-11T00:40:55.128Z,998.27
2019-05-11T00:41:55.115Z,998.32
2019-05-11T00:42:55.131Z,998.31
2019-05-11T00:43:55.091Z,998.34
2019-05-11T00:44:55.083Z,998.32
2019-05-11T00:45:55.069Z,998.35
2019-05-11T00:46:55.060Z,998.41
2019-05-11T00:47:55.057Z,998.41
2019-05-11T00:48:55.066Z,998.42
2019-05-11T00:49:55.026Z,998.45
2019-05-11T00:50:55.013Z,998.45
2019-05-11T00:51:55.005Z,998.42
2019-05-11T00:52:54.988Z,998.41
2019-05-11T00:53:54.978Z,998.39
2019-05-11T00:54:54.995Z,998.36
2019-05-11T00:55:54.957Z,998.36
2019-05-11T00:56:54.942Z,998.30
2019-05-11T00:57:54.933Z,998.28
2019-05-11T00:58:54.922Z,998.28
2019-05-11T00:59:54.910Z,998.26
2019-05-11T01:00:54.939Z,998.30
2019-05-11T01:01:54.892Z,998.31
2019-05-11T01:02:54.876Z,998.28
2019-05-11T01:03:54.872Z,998.36
2019-05-11T01:04:54.853Z,998.36
2019-05-11T01:05:54.894Z,998.35
2019-05-11T01:06:54.831Z,998.38
2019-05-11T01:07:54.818Z,998.38
2019-05-11T01:08:54.807Z,998.39
2019-05-11T01:09:54.798Z,998.32
2019-05-11T01:10:54.784Z,998.26
2019-05-11T01:11:54.804Z,998.23
2019-05-11T01:12:54.767Z,998.22
2019-05-11T01:13:54.750Z,998.18
2019-05-11T01:14:54.741Z,998.17
2019-05-11T01:15:54.728Z,998.16
2019-05-11T01:16:54.721Z,998.22
2019-05-11T01:17:54.724Z,998.26
2019-05-11T01:18:54.695Z,998.27
2019-05-11T01:19:54.682Z,998.26
2019-05-11T01:20:54.671Z,998.28
2019-05-11T01:21:54.662Z,998.24
2019-05-11T01:22:54.674Z,998.20
2019-05-11T01:23:54.638Z,998.17
2019-05-11T01:24:54.629Z,998.16
2019-05-11T01:25:54.638Z,998.18
2019-05-11T01:26:54.602Z,998.13
2019-05-11T01:27:54.589Z,998.10
2019-05-11T01:28:54.608Z,998.08
2019-05-11T01:29:54.571Z,998.14
2019-05-11T01:30:54.555Z,998.06
2019-05-11T01:31:54.545Z,998.07
2019-05-11T01:32:54.534Z,998.06
2019-05-11T01:33:54.529Z,998.10
2019-05-11T01:34:54.551Z,998.05
2019-05-11T01:35:54.499Z,998.13
2019-05-11T01:36:54.499Z,998.08
2019-05-11T01:37:54.485Z,998.06
2019-05-11T01:38:54.467Z,998.11
2019-05-11T01:39:54.462Z,998.08
2019-05-11T01:40:58.796Z,998.05
2019-05-11T01:41:54.439Z,998.03
2019-05-11T01:42:54.420Z,998.00
2019-05-11T01:43:54.409Z,997.99
2019-05-11T01:44:54.404Z,997.99
2019-05-11T01:45:54.414Z,997.96
2019-05-11T01:46:54.377Z,997.93
2019-05-11T01:47:54.363Z,997.93
2019-05-11T01:48:54.355Z,997.90
2019-05-11T01:49:54.339Z,997.92
2019-05-11T01:50:54.330Z,997.92
2019-05-11T01:51:54.346Z,997.88
2019-05-11T01:52:54.350Z,997.88
2019-05-11T01:53:54.294Z,997.83
2019-05-11T01:54:54.284Z,997.84
2019-05-11T01:55:54.296Z,997.77
2019-05-11T01:56:54.262Z,997.76
2019-05-11T01:57:54.270Z,997.72
2019-05-11T01:58:54.241Z,997.68
2019-05-11T01:59:54.225Z,997.68
2019-05-11T02:00:54.215Z,997.65
2019-05-11T02:01:54.204Z,997.65
2019-05-11T02:02:54.217Z,997.68
2019-05-11T02:03:54.179Z,997.71
2019-05-11T02:04:54.169Z,997.74
2019-05-11T02:05:54.186Z,997.75
2019-05-11T02:06:54.147Z,997.72
2019-05-11T02:07:54.137Z,997.75
2019-05-11T02:08:54.149Z,997.74
2019-05-11T02:09:54.115Z,997.74
2019-05-11T02:10:54.099Z,997.72
2019-05-11T02:11:54.090Z,997.73
2019-05-11T02:12:54.081Z,997.69
2019-05-11T02:13:54.078Z,997.69
2019-05-11T02:14:54.083Z,997.71
2019-05-11T02:15:54.044Z,997.73
2019-05-11T02:16:54.031Z,997.69
2019-05-11T02:17:54.063Z,997.70
2019-05-11T02:18:54.039Z,997.75
2019-05-11T02:19:54.023Z,997.74
2019-05-11T02:20:54.009Z,997.73
2019-05-11T02:21:53.976Z,997.76
2019-05-11T02:22:53.972Z,997.78
2019-05-11T02:23:53.951Z,997.74
2019-05-11T02:24:53.955Z,997.69
2019-05-11T02:25:53.959Z,997.70
2019-05-11T02:26:53.920Z,997.66
2019-05-11T02:27:53.907Z,997.66
2019-05-11T02:28:53.895Z,997.60
2019-05-11T02:29:53.885Z,997.65
2019-05-11T02:30:53.881Z,997.61
2019-05-11T02:31:53.896Z,997.69
2019-05-11T02:32:53.871Z,997.66
2019-05-11T02:33:53.849Z,997.62
2019-05-11T02:34:53.829Z,997.61
2019-05-11T02:35:53.823Z,997.57
2019-05-11T02:36:53.809Z,997.56
2019-05-11T02:37:53.809Z,997.54
2019-05-11T02:38:53.785Z,997.57
2019-05-11T02:39:53.772Z,997.55
2019-05-11T02:40:53.764Z,997.53
2019-05-11T02:41:53.749Z,997.53
2019-05-11T02:42:53.783Z,997.56
2019-05-11T02:43:53.727Z,997.54
2019-05-11T02:44:53.712Z,997.53
2019-05-11T02:45:53.702Z,997.53
2019-05-11T02:46:53.690Z,997.52
2019-05-11T02:47:53.679Z,997.49
2019-05-11T02:48:53.703Z,997.52
2019-05-11T02:49:53.657Z,997.50
2019-05-11T02:50:53.650Z,997.49
2019-05-11T02:51:53.637Z,997.48
2019-05-11T02:52:53.624Z,997.47
2019-05-11T02:53:53.622Z,997.46
2019-05-11T02:54:53.632Z,997.44
2019-05-11T02:55:53.593Z,997.43
2019-05-11T02:56:53.575Z,997.42
2019-05-11T02:57:53.566Z,997.42
2019-05-11T02:58:53.554Z,997.36
2019-05-11T02:59:53.546Z,997.43
2019-05-11T03:00:53.575Z,997.45
2019-05-11T03:01:53.518Z,997.45
2019-05-11T03:02:53.511Z,997.41
2019-05-11T03:03:53.495Z,997.42
2019-05-11T03:04:53.485Z,997.42
2019-05-11T03:05:53.473Z,997.42
2019-05-11T03:06:53.491Z,997.43
2019-05-11T03:07:53.450Z,997.45
2019-05-11T03:08:53.441Z,997.42
2019-05-11T03:09:53.426Z,997.46
2019-05-11T03:10:53.414Z,997.45
2019-05-11T03:11:56.139Z,997.40
2019-05-11T03:12:53.423Z,997.39
2019-05-11T03:13:53.444Z,997.45
2019-05-11T03:14:53.373Z,997.46
2019-05-11T03:15:53.358Z,997.46
2019-05-11T03:16:53.349Z,997.55
2019-05-11T03:17:53.335Z,997.54
2019-05-11T03:18:53.353Z,997.53
2019-05-11T03:19:53.320Z,997.52
2019-05-11T03:20:53.302Z,997.52
2019-05-11T03:21:53.287Z,997.56
2019-05-11T03:22:53.278Z,997.56
2019-05-11T03:23:53.268Z,997.55
2019-05-11T03:24:53.292Z,997.57
2019-05-11T03:25:53.240Z,997.55
2019-05-11T03:26:53.230Z,997.56
2019-05-11T03:27:53.217Z,997.53
2019-05-11T03:28:53.206Z,997.57
2019-05-11T03:29:53.196Z,997.49
2019-05-11T03:30:53.227Z,997.51
2019-05-11T03:31:53.174Z,997.50
2019-05-11T03:32:53.185Z,997.50
2019-05-11T03:33:53.155Z,997.51
2019-05-11T03:34:53.171Z,997.49
2019-05-11T03:35:53.143Z,997.51
2019-05-11T03:36:53.247Z,997.48
2019-05-11T03:37:53.104Z,997.50
2019-05-11T03:38:53.093Z,997.45
2019-05-11T03:39:53.088Z,997.44
2019-05-11T03:40:53.141Z,997.39
2019-05-11T03:41:53.058Z,997.40
2019-05-11T03:42:53.082Z,997.41
2019-05-11T03:43:53.039Z,997.36
2019-05-11T03:44:53.025Z,997.42
2019-05-11T03:45:53.020Z,997.38
2019-05-11T03:46:53.002Z,997.43
2019-05-11T03:47:53.000Z,997.39
2019-05-11T03:48:53.006Z,997.44
2019-05-11T03:49:52.967Z,997.39
2019-05-11T03:50:52.959Z,997.42
2019-05-11T03:51:52.955Z,997.39
2019-05-11T03:52:52.933Z,997.36
2019-05-11T03:53:52.922Z,997.36
2019-05-11T03:54:52.940Z,997.35
2019-05-11T03:55:52.900Z,997.28
2019-05-11T03:56:52.887Z,997.31
2019-05-11T03:57:52.877Z,997.29
2019-05-11T03:58:52.872Z,997.26
2019-05-11T03:59:52.851Z,997.25
2019-05-11T04:00:52.869Z,997.21
2019-05-11T04:01:52.828Z,997.20
2019-05-11T04:02:52.815Z,997.19
2019-05-11T04:03:52.806Z,997.18
2019-05-11T04:04:52.801Z,997.20
2019-05-11T04:05:52.783Z,997.23
2019-05-11T04:06:52.800Z,997.25
2019-05-11T04:07:52.759Z,997.30
2019-05-11T04:08:52.749Z,997.25
2019-05-11T04:09:52.737Z,997.25
2019-05-11T04:10:52.732Z,997.20
2019-05-11T04:11:52.716Z,997.21
2019-05-11T04:12:52.729Z,997.20
2019-05-11T04:13:52.688Z,997.26
2019-05-11T04:14:52.678Z,997.27
2019-05-11T04:15:52.667Z,997.32
2019-05-11T04:16:52.656Z,997.32
2019-05-11T04:17:52.648Z,997.28
2019-05-11T04:18:52.662Z,997.33
2019-05-11T04:19:52.621Z,997.31
2019-05-11T04:20:52.613Z,997.28
2019-05-11T04:21:52.598Z,997.26
2019-05-11T04:22:52.591Z,997.24
2019-05-11T04:23:52.682Z,997.23
2019-05-11T04:24:52.598Z,997.23
2019-05-11T04:25:52.551Z,997.23
2019-05-11T04:26:52.541Z,997.17
2019-05-11T04:27:52.532Z,997.15
2019-05-11T04:28:52.517Z,997.14
2019-05-11T04:29:52.506Z,997.13
2019-05-11T04:30:52.522Z,997.15
2019-05-11T04:31:52.485Z,997.19
2019-05-11T04:32:52.477Z,997.14
2019-05-11T04:33:52.458Z,997.13
2019-05-11T04:34:52.451Z,997.17
2019-05-11T04:35:52.438Z,997.15
2019-05-11T04:36:52.457Z,997.15
2019-05-11T04:37:52.417Z,997.16
2019-05-11T04:38:52.402Z,997.20
2019-05-11T04:39:52.391Z,997.22
2019-05-11T04:40:52.378Z,997.24
2019-05-11T04:41:52.368Z,997.27
2019-05-11T04:42:55.604Z,997.28
2019-05-11T04:43:52.343Z,997.36
2019-05-11T04:44:52.715Z,997.36
2019-05-11T04:45:52.323Z,997.38
2019-05-11T04:46:52.309Z,997.38
2019-05-11T04:47:52.299Z,997.37
2019-05-11T04:48:52.318Z,997.39
2019-05-11T04:49:52.275Z,997.36
2019-05-11T04:50:52.263Z,997.35
2019-05-11T04:51:52.263Z,997.32
2019-05-11T04:52:52.240Z,997.29
2019-05-11T04:53:52.231Z,997.31
2019-05-11T04:54:52.246Z,997.26
2019-05-11T04:55:52.205Z,997.22
2019-05-11T04:56:52.196Z,997.26
2019-05-11T04:57:52.189Z,997.19
2019-05-11T04:58:52.172Z,997.16
2019-05-11T04:59:52.160Z,997.17
2019-05-11T05:00:52.181Z,997.18
2019-05-11T05:01:52.141Z,997.16
2019-05-11T05:02:52.130Z,997.18
2019-05-11T05:03:54.133Z,997.15
2019-05-11T05:04:52.108Z,997.13
2019-05-11T05:05:52.091Z,997.09
2019-05-11T05:06:59.849Z,997.07
2019-05-11T05:07:53.069Z,997.14
2019-05-11T05:08:52.058Z,997.09
2019-05-11T05:09:52.046Z,997.08
2019-05-11T05:10:57.831Z,997.09
2019-05-11T05:11:53.048Z,997.12
2019-05-11T05:12:53.420Z,997.08
2019-05-11T05:13:53.604Z,997.05
2019-05-11T05:14:51.988Z,997.06
2019-05-11T05:15:51.986Z,997.02
2019-05-11T05:16:51.964Z,997.02
2019-05-11T05:17:51.986Z,997.05
2019-05-11T05:18:51.941Z,997.03
2019-05-11T05:19:51.930Z,997.03
2019-05-11T05:20:51.923Z,997.09
2019-05-11T05:21:51.907Z,997.07
2019-05-11T05:22:51.894Z,997.04
2019-05-11T05:23:51.912Z,997.10
2019-05-11T05:24:51.874Z,997.06
2019-05-11T05:25:51.863Z,997.07
2019-05-11T05:26:51.853Z,997.08
2019-05-11T05:27:51.847Z,997.08
2019-05-11T05:28:51.843Z,997.07
2019-05-11T05:29:51.849Z,997.02
2019-05-11T05:30:51.806Z,997.01
2019-05-11T05:31:51.794Z,997.04
2019-05-11T05:32:51.781Z,997.00
2019-05-11T05:33:51.767Z,997.03
2019-05-11T05:34:51.757Z,997.05
2019-05-11T05:35:51.774Z,997.05
2019-05-11T05:36:51.735Z,997.03
2019-05-11T05:37:51.725Z,997.09
2019-05-11T05:38:51.714Z,997.04
2019-05-11T05:39:51.702Z,997.06
2019-05-11T05:40:51.690Z,997.04
2019-05-11T05:41:57.227Z,997.04
2019-05-11T05:42:52.665Z,996.98
2019-05-11T05:43:51.652Z,997.03
2019-05-11T05:44:51.645Z,997.00
2019-05-11T05:45:51.632Z,996.98
2019-05-11T05:46:51.620Z,997.02
2019-05-11T05:47:51.635Z,997.05
2019-05-11T05:48:51.597Z,997.06
2019-05-11T05:49:51.587Z,997.06
2019-05-11T05:50:51.576Z,997.08
2019-05-11T05:51:51.561Z,997.03
2019-05-11T05:52:51.551Z,997.03
2019-05-11T05:53:51.568Z,997.04
2019-05-11T05:54:51.525Z,997.03
2019-05-11T05:55:51.515Z,996.99
2019-05-11T05:56:51.503Z,996.99
2019-05-11T05:57:51.495Z,996.99
2019-05-11T05:58:51.491Z,996.99
2019-05-11T05:59:51.498Z,996.98
2019-05-11T06:00:51.457Z,996.99
2019-05-11T06:01:51.445Z,997.00
2019-05-11T06:02:51.445Z,996.96
2019-05-11T06:03:51.421Z,996.96
2019-05-11T06:04:51.410Z,997.00
2019-05-11T06:05:51.426Z,996.95
2019-05-11T06:06:51.387Z,997.00
2019-05-11T06:07:51.378Z,997.02
2019-05-11T06:08:51.370Z,997.04
2019-05-11T06:09:51.353Z,997.05
2019-05-11T06:10:51.344Z,997.04
2019-05-11T06:11:51.363Z,997.05
2019-05-11T06:12:51.319Z,997.05
2019-05-11T06:13:51.313Z,997.02
2019-05-11T06:14:51.295Z,997.07
2019-05-11T06:15:51.284Z,997.12
2019-05-11T06:16:51.275Z,997.06
2019-05-11T06:17:51.289Z,997.08
2019-05-11T06:18:51.252Z,997.07
2019-05-11T06:19:51.239Z,997.07
2019-05-11T06:20:51.225Z,997.07
2019-05-11T06:21:51.218Z,997.06
2019-05-11T06:22:51.203Z,997.06
2019-05-11T06:23:51.218Z,997.05
2019-05-11T06:24:51.181Z,997.09
2019-05-11T06:25:51.168Z,997.04
2019-05-11T06:26:51.156Z,997.06
2019-05-11T06:27:51.157Z,997.01
2019-05-11T06:28:51.135Z,997.01
2019-05-11T06:29:51.148Z,996.99
2019-05-11T06:30:51.115Z,996.93
2019-05-11T06:31:51.101Z,996.94
2019-05-11T06:32:51.092Z,996.96
2019-05-11T06:33:51.074Z,996.95
2019-05-11T06:34:51.068Z,996.95
2019-05-11T06:35:51.082Z,996.95
2019-05-11T06:36:51.059Z,996.89
2019-05-11T06:37:51.035Z,996.92
2019-05-11T06:38:51.020Z,996.94
2019-05-11T06:39:51.009Z,996.94
2019-05-11T06:40:50.997Z,996.88
2019-05-11T06:41:51.013Z,996.97
2019-05-11T06:42:50.983Z,996.92
2019-05-11T06:44:01.214Z,996.90
2019-05-11T06:44:51.948Z,996.94
2019-05-11T06:45:50.983Z,996.88
2019-05-11T06:46:50.930Z,996.86
2019-05-11T06:47:50.944Z,996.89
2019-05-11T06:48:50.925Z,996.87
2019-05-11T06:49:50.910Z,996.88
2019-05-11T06:50:50.950Z,996.85
2019-05-11T06:51:50.885Z,996.78
2019-05-11T06:52:50.860Z,996.81
2019-05-11T06:53:50.873Z,996.82
2019-05-11T06:54:50.835Z,996.78
2019-05-11T06:55:50.824Z,996.74
2019-05-11T06:56:50.814Z,996.73
2019-05-11T06:57:50.802Z,996.79
2019-05-11T06:58:50.792Z,996.75
2019-05-11T06:59:50.868Z,996.75
2019-05-11T07:00:50.766Z,996.79
2019-05-11T07:01:50.763Z,996.80
2019-05-11T07:02:50.750Z,996.79
2019-05-11T07:03:50.733Z,996.79
2019-05-11T07:04:50.727Z,996.79
2019-05-11T07:05:50.737Z,996.75
2019-05-11T07:06:50.701Z,996.77
2019-05-11T07:07:50.688Z,996.73
2019-05-11T07:08:50.676Z,996.74
2019-05-11T07:09:50.672Z,996.73
2019-05-11T07:10:50.653Z,996.73
2019-05-11T07:11:50.734Z,996.74
2019-05-11T07:12:50.630Z,996.73
2019-05-11T07:13:50.618Z,996.70
2019-05-11T07:14:50.606Z,996.73
2019-05-11T07:15:50.597Z,996.74
2019-05-11T07:16:50.585Z,996.74
2019-05-11T07:17:50.602Z,996.69
2019-05-11T07:18:50.559Z,996.66
2019-05-11T07:19:50.548Z,996.70
2019-05-11T07:20:51.113Z,996.70
2019-05-11T07:21:50.527Z,996.73
2019-05-11T07:22:50.521Z,996.71
2019-05-11T07:23:50.530Z,996.69
2019-05-11T07:24:50.489Z,996.70
2019-05-11T07:25:50.481Z,996.66
2019-05-11T07:26:50.470Z,996.75
2019-05-11T07:27:50.455Z,996.70
2019-05-11T07:28:50.444Z,996.67
2019-05-11T07:29:50.465Z,996.65
2019-05-11T07:30:50.433Z,996.62
2019-05-11T07:31:50.410Z,996.64
2019-05-11T07:32:50.398Z,996.67
2019-05-11T07:33:50.393Z,996.65
2019-05-11T07:34:50.375Z,996.67
2019-05-11T07:35:50.392Z,996.67
2019-05-11T07:36:50.357Z,996.66
2019-05-11T07:37:50.340Z,996.64
2019-05-11T07:38:50.329Z,996.68
2019-05-11T07:39:50.320Z,996.67
2019-05-11T07:40:50.305Z,996.59
2019-05-11T07:41:50.321Z,996.59
2019-05-11T07:42:50.283Z,996.62
2019-05-11T07:43:50.283Z,996.60
2019-05-11T07:44:50.268Z,996.56
2019-05-11T07:45:50.247Z,996.58
2019-05-11T07:46:50.237Z,996.53
2019-05-11T07:47:50.254Z,996.59
2019-05-11T07:48:50.214Z,996.55
2019-05-11T07:49:50.204Z,996.53
2019-05-11T07:50:50.190Z,996.56
2019-05-11T07:51:50.183Z,996.47
2019-05-11T07:52:50.166Z,996.54
2019-05-11T07:53:50.185Z,996.49
2019-05-11T07:54:52.923Z,996.46
2019-05-11T07:55:50.133Z,996.52
2019-05-11T07:56:50.125Z,996.53
2019-05-11T07:57:50.109Z,996.49
2019-05-11T07:58:50.100Z,996.51
2019-05-11T07:59:50.115Z,996.49
2019-05-11T08:00:50.074Z,996.49
2019-05-11T08:01:50.065Z,996.52
2019-05-11T08:02:50.059Z,996.55
2019-05-11T08:03:50.040Z,996.48
2019-05-11T08:04:50.030Z,996.56
2019-05-11T08:05:50.053Z,996.58
2019-05-11T08:06:50.011Z,996.56
2019-05-11T08:07:49.997Z,996.55
2019-05-11T08:08:49.983Z,996.58
2019-05-11T08:09:49.972Z,996.53
2019-05-11T08:10:49.966Z,996.57
2019-05-11T08:11:49.988Z,996.52
2019-05-11T08:12:49.941Z,996.53
2019-05-11T08:13:49.925Z,996.52
2019-05-11T08:14:59.109Z,996.47
2019-05-11T08:15:50.902Z,996.48
2019-05-11T08:16:49.892Z,996.47
2019-05-11T08:17:49.907Z,996.48
2019-05-11T08:18:49.868Z,996.49
2019-05-11T08:19:49.857Z,996.54
2019-05-11T08:20:49.843Z,996.48
2019-05-11T08:21:49.833Z,996.51
2019-05-11T08:22:49.820Z,996.46
2019-05-11T08:23:49.837Z,996.50
2019-05-11T08:24:49.797Z,996.52
2019-05-11T08:25:49.788Z,996.53
2019-05-11T08:26:49.774Z,996.53
2019-05-11T08:27:49.774Z,996.52
2019-05-11T08:28:49.752Z,996.53
2019-05-11T08:29:49.766Z,996.56
2019-05-11T08:30:49.730Z,996.54
2019-05-11T08:31:49.716Z,996.55
2019-05-11T08:32:49.707Z,996.58
2019-05-11T08:33:49.693Z,996.57
2019-05-11T08:34:49.682Z,996.58
2019-05-11T08:35:49.713Z,996.60
2019-05-11T08:36:49.660Z,996.60
2019-05-11T08:37:49.674Z,996.58
2019-05-11T08:38:49.635Z,996.60
2019-05-11T08:39:49.627Z,996.64
2019-05-11T08:40:49.613Z,996.66
2019-05-11T08:41:49.629Z,996.64
2019-05-11T08:42:49.590Z,996.66
2019-05-11T08:43:49.577Z,996.69
2019-05-11T08:44:49.567Z,996.66
2019-05-11T08:45:49.553Z,996.64
2019-05-11T08:46:49.544Z,996.65
2019-05-11T08:47:49.562Z,996.68
2019-05-11T08:48:49.523Z,996.58
2019-05-11T08:49:49.509Z,996.65
2019-05-11T08:50:49.504Z,996.66
2019-05-11T08:51:49.489Z,996.63
2019-05-11T08:52:49.477Z,996.66
2019-05-11T08:53:49.489Z,996.68
2019-05-11T08:54:49.450Z,996.66
2019-05-11T08:55:49.440Z,996.68
2019-05-11T08:56:49.429Z,996.65
2019-05-11T08:57:49.417Z,996.60
2019-05-11T08:58:49.407Z,996.68
2019-05-11T08:59:49.409Z,996.65
2019-05-11T09:00:49.384Z,996.66
2019-05-11T09:01:49.374Z,996.67
2019-05-11T09:02:50.719Z,996.64
2019-05-11T09:03:49.350Z,996.64
2019-05-11T09:04:49.368Z,996.62
2019-05-11T09:05:49.327Z,996.67
2019-05-11T09:06:49.314Z,996.64
2019-05-11T09:07:49.302Z,996.64
2019-05-11T09:08:49.560Z,996.65
2019-05-11T09:09:49.282Z,996.67
2019-05-11T09:10:49.381Z,996.60
2019-05-11T09:11:49.254Z,996.59
2019-05-11T09:12:49.253Z,996.60
2019-05-11T09:13:49.233Z,996.60
2019-05-11T09:14:49.226Z,996.58
2019-05-11T09:15:49.237Z,996.57
2019-05-11T09:16:49.199Z,996.56
2019-05-11T09:17:49.940Z,996.55
2019-05-11T09:18:49.177Z,996.57
2019-05-11T09:19:49.162Z,996.61
2019-05-11T09:20:49.154Z,996.55
2019-05-11T09:21:49.157Z,996.58
2019-05-11T09:22:49.128Z,996.61
2019-05-11T09:23:49.120Z,996.60
2019-05-11T09:24:49.106Z,996.59
2019-05-11T09:25:49.094Z,996.59
2019-05-11T09:26:49.108Z,996.60
2019-05-11T09:27:49.082Z,996.61
2019-05-11T09:28:49.059Z,996.63
2019-05-11T09:29:49.049Z,996.65
2019-05-11T09:30:49.036Z,996.59
2019-05-11T09:31:49.028Z,996.66
2019-05-11T09:32:49.030Z,996.63
2019-05-11T09:33:49.002Z,996.66
2019-05-11T09:34:48.990Z,996.72
2019-05-11T09:35:52.981Z,996.76
2019-05-11T09:36:48.968Z,996.74
2019-05-11T09:37:48.983Z,996.69
2019-05-11T09:38:49.216Z,996.74
2019-05-11T09:39:48.934Z,996.73
2019-05-11T09:40:48.921Z,996.74
2019-05-11T09:41:49.018Z,996.80
2019-05-11T09:42:48.898Z,996.80
2019-05-11T09:43:48.902Z,996.79
2019-05-11T09:44:48.879Z,996.86
2019-05-11T09:45:51.618Z,996.81
2019-05-11T09:46:48.853Z,996.81
2019-05-11T09:47:48.843Z,996.81
2019-05-11T09:48:48.847Z,996.84
2019-05-11T09:49:50.964Z,996.85
2019-05-11T09:50:48.820Z,996.85
2019-05-11T09:51:48.794Z,996.81
2019-05-11T09:52:49.168Z,996.86
2019-05-11T09:53:48.771Z,996.83
2019-05-11T09:54:48.845Z,996.80
2019-05-11T09:55:48.763Z,996.85
2019-05-11T09:56:48.846Z,996.86
2019-05-11T09:57:48.949Z,996.82
2019-05-11T09:58:48.715Z,996.86
2019-05-11T09:59:48.702Z,996.83
2019-05-11T10:00:48.707Z,996.78
2019-05-11T10:01:48.684Z,996.79
2019-05-11T10:02:49.017Z,996.83
2019-05-11T10:03:48.655Z,996.76
2019-05-11T10:04:48.642Z,996.74
2019-05-11T10:05:48.831Z,996.73
2019-05-11T10:06:48.620Z,996.72
2019-05-11T10:07:48.706Z,996.78
2019-05-11T10:08:48.946Z,996.69
2019-05-11T10:09:48.586Z,996.70
2019-05-11T10:10:48.908Z,996.64
2019-05-11T10:11:48.561Z,996.67
2019-05-11T10:12:52.266Z,996.65
2019-05-11T10:13:48.542Z,996.67
2019-05-11T10:14:48.711Z,996.59
2019-05-11T10:16:00.950Z,996.60
2019-05-11T10:16:49.503Z,996.59
2019-05-11T10:17:48.494Z,996.61
2019-05-11T10:18:49.340Z,996.57
2019-05-11T10:19:49.737Z,996.55
2019-05-11T10:20:48.476Z,996.50
2019-05-11T10:21:48.806Z,996.44
2019-05-11T10:22:48.728Z,996.38
2019-05-11T10:23:49.013Z,996.29
2019-05-11T10:24:48.413Z,996.35
2019-05-11T10:25:48.416Z,996.39
2019-05-11T10:26:48.794Z,996.44
2019-05-11T10:27:49.088Z,996.50
2019-05-11T10:28:48.495Z,996.46
2019-05-11T10:29:48.631Z,996.44
2019-05-11T10:30:48.691Z,996.52
2019-05-11T10:31:48.336Z,996.56
2019-05-11T10:32:48.557Z,996.63
2019-05-11T10:33:49.090Z,996.65
2019-05-11T10:34:48.299Z,996.70
2019-05-11T10:35:48.492Z,996.70
2019-05-11T10:36:48.763Z,996.73
2019-05-11T10:37:48.263Z,996.72
2019-05-11T10:38:48.832Z,996.68
2019-05-11T10:39:48.897Z,996.67
2019-05-11T10:40:48.250Z,996.61
2019-05-11T10:41:48.227Z,996.58
2019-05-11T10:42:48.494Z,996.59
2019-05-11T10:43:49.086Z,996.58
2019-05-11T10:44:48.183Z,996.55
2019-05-11T10:45:48.469Z,996.56
2019-05-11T10:46:48.394Z,996.53
2019-05-11T10:47:48.952Z,996.56
2019-05-11T10:48:48.536Z,996.55
2019-05-11T10:49:48.609Z,996.50
2019-05-11T10:50:48.485Z,996.46
2019-05-11T10:51:48.738Z,996.50
2019-05-11T10:52:48.478Z,996.47
2019-05-11T10:53:51.640Z,996.48
2019-05-11T10:54:48.079Z,996.45
2019-05-11T10:55:48.117Z,996.47
2019-05-11T10:56:48.293Z,996.41
2019-05-11T10:57:48.723Z,996.39
2019-05-11T10:58:48.381Z,996.45
2019-05-11T10:59:48.871Z,996.37
2019-05-11T11:00:48.192Z,996.31
2019-05-11T11:01:48.471Z,996.31
2019-05-11T11:02:47.983Z,996.32
2019-05-11T11:03:48.533Z,996.35
2019-05-11T11:04:48.557Z,996.35
2019-05-11T11:05:48.796Z,996.36
2019-05-11T11:06:48.556Z,996.36
2019-05-11T11:07:48.542Z,996.38
2019-05-11T11:08:48.737Z,996.38
2019-05-11T11:09:49.020Z,996.28
2019-05-11T11:10:48.509Z,996.35
2019-05-11T11:11:48.904Z,996.37
2019-05-11T11:12:48.943Z,996.38
2019-05-11T11:13:48.250Z,996.33
2019-05-11T11:14:48.285Z,996.34
2019-05-11T11:15:48.518Z,996.40
2019-05-11T11:16:48.103Z,996.31
2019-05-11T11:17:48.560Z,996.34
2019-05-11T11:18:48.651Z,996.29
2019-05-11T11:19:48.637Z,996.28
2019-05-11T11:20:48.908Z,996.28
2019-05-11T11:21:48.765Z,996.25
2019-05-11T11:22:48.283Z,996.20
2019-05-11T11:23:48.144Z,996.23
2019-05-11T11:24:48.300Z,996.20
2019-05-11T11:25:48.260Z,996.19
2019-05-11T11:26:48.650Z,996.15
2019-05-11T11:27:48.609Z,996.18
2019-05-11T11:28:48.022Z,996.20
2019-05-11T11:29:47.721Z,996.24
2019-05-11T11:30:48.149Z,996.20
2019-05-11T11:31:48.173Z,996.16
2019-05-11T11:32:48.227Z,996.18
2019-05-11T11:33:48.867Z,996.20
2019-05-11T11:34:48.459Z,996.22
2019-05-11T11:35:47.800Z,996.20
2019-05-11T11:36:48.240Z,996.15
2019-05-11T11:37:47.954Z,996.14
2019-05-11T11:38:48.055Z,996.17
2019-05-11T11:39:47.722Z,996.13
2019-05-11T11:40:48.224Z,996.05
2019-05-11T11:41:48.609Z,996.07
2019-05-11T11:42:47.885Z,996.08
2019-05-11T11:43:48.247Z,996.05
2019-05-11T11:44:48.345Z,996.04
2019-05-11T11:45:48.475Z,996.04
2019-05-11T11:46:54.519Z,996.02
2019-05-11T11:47:49.383Z,996.06
2019-05-11T11:48:48.862Z,996.09
2019-05-11T11:49:47.650Z,996.12
2019-05-11T11:50:48.089Z,996.04
2019-05-11T11:51:48.431Z,996.05
2019-05-11T11:52:47.790Z,996.14
2019-05-11T11:53:47.986Z,996.09
2019-05-11T11:54:47.888Z,996.06
2019-05-11T11:55:48.220Z,996.06
2019-05-11T11:56:48.642Z,996.02
2019-05-11T11:57:48.641Z,996.08
2019-05-11T11:58:48.854Z,996.08
2019-05-11T11:59:48.145Z,995.99
2019-05-11T12:00:48.244Z,995.98
2019-05-11T12:01:48.708Z,995.98
2019-05-11T12:02:48.707Z,995.96
2019-05-11T12:03:48.853Z,996.01
2019-05-11T12:04:48.615Z,995.98
2019-05-11T12:05:47.849Z,995.97
2019-05-11T12:06:49.046Z,996.06
2019-05-11T12:07:49.051Z,996.00
2019-05-11T12:08:49.773Z,996.04
2019-05-11T12:09:48.378Z,996.01
2019-05-11T12:10:48.435Z,996.03
2019-05-11T12:11:48.636Z,996.05
2019-05-11T12:12:47.644Z,996.03
2019-05-11T12:13:47.573Z,996.10
2019-05-11T12:14:48.010Z,996.05
2019-05-11T12:15:48.241Z,996.10
2019-05-11T12:16:47.970Z,996.03
2019-05-11T12:17:48.495Z,996.18
2019-05-11T12:18:48.635Z,996.12
2019-05-11T12:19:47.779Z,996.07
2019-05-11T12:20:48.065Z,996.06
2019-05-11T12:21:48.365Z,996.09
2019-05-11T12:22:47.682Z,996.07
2019-05-11T12:23:48.665Z,996.15
2019-05-11T12:24:48.168Z,996.20
2019-05-11T12:25:48.681Z,996.16
2019-05-11T12:26:48.014Z,996.17
2019-05-11T12:27:49.031Z,996.21
2019-05-11T12:28:49.045Z,996.24